Погода Демскиена 2 недели

Витебская область, Белоруссия

24 мая-06 июня
  • 24мая
    Сегодня
    +11°
    +25°
    Ясно и безоблачно
    ВремяПогодаТемператураВлажностьДавлениеВетер, м/сВероятность осадков
    00:00Практически безоблачно+16°C80 %755 мм3.2 м/с2 %
    03:00Практически безоблачно+14°C64 %756 мм3.8 м/с2 %
    06:00Ясно и безоблачно+13°C68 %757 мм3.8 м/с2 %
    09:00Ясно и безоблачно+18°C64 %757 мм4.3 м/с2 %
    12:00Ясно и безоблачно+23°C50 %758 мм4.6 м/с2 %
    15:00Ясно и безоблачно+24°C44 %757 мм4.6 м/с2 %
    18:00Ясно и безоблачно+23°C45 %756 мм4.4 м/с2 %
    21:00Ясно и безоблачно+19°C59 %756 мм3.3 м/с2 %
  • 25мая
    Суббота
    +11°
    +26°
    Практически безоблачно
    ВремяПогодаТемператураВлажностьДавлениеВетер, м/сВероятность осадков
    00:00Ясно и безоблачно+15°C64 %757 мм3.7 м/с2 %
    03:00Ясно и безоблачно+13°C68 %757 мм2.9 м/с2 %
    06:00Ясно и безоблачно+12°C72 %757 мм2.8 м/с2 %
    09:00Ясно и безоблачно+18°C61 %757 мм2.4 м/с2 %
    12:00Ясно и безоблачно+24°C47 %756 мм2.8 м/с2 %
    15:00Практически безоблачно+25°C40 %756 мм2.6 м/с1 %
    18:00Небольшая облачность+25°C39 %755 мм2.8 м/с4 %
    21:00Практически безоблачно+19°C68 %755 мм2.1 м/с2 %
  • 26мая
    Воскресенье
    +13°
    +26°
    Практически безоблачно
    ВремяПогодаТемператураВлажностьДавлениеВетер, м/сВероятность осадков
    00:00Ясно и безоблачно+14°C83 %755 мм2.3 м/с2 %
    03:00Ясно и безоблачно+13°C85 %755 мм2.4 м/с2 %
    06:00Ясно и безоблачно+14°C83 %755 мм2.0 м/с2 %
    09:00Ясно и безоблачно+19°C65 %756 мм0.4 м/с2 %
    12:00Ясно и безоблачно+24°C42 %756 мм1.0 м/с2 %
    15:00Практически безоблачно+25°C39 %755 мм0.7 м/с2 %
    18:00Облачно с прояснениями+25°C36 %755 мм1.8 м/с2 %
    21:00Ясно и безоблачно+22°C44 %755 мм1.6 м/с2 %
  • 27мая
    Понедельник
    +13°
    +25°
    Ясно и безоблачно
    ВремяПогодаТемператураВлажностьДавлениеВетер, м/сВероятность осадков
    00:00Практически безоблачно+16°C74 %755 мм2.8 м/с2 %
    03:00Ясно и безоблачно+14°C84 %755 мм2.8 м/с2 %
    06:00Ясно и безоблачно+14°C84 %755 мм1.5 м/с2 %
    09:00Ясно и безоблачно+20°C58 %756 мм0.9 м/с2 %
    12:00Ясно и безоблачно+24°C37 %755 мм1.7 м/с2 %
    15:00Ясно и безоблачно+25°C38 %755 мм2.1 м/с5 %
    18:00Практически безоблачно+24°C41 %754 мм1.8 м/с14 %
    21:00Ясно и безоблачно+21°C68 %754 мм2.2 м/с7 %
  • 28мая
    Вторник
    +13°
    +26°
    Пасмурно, сплошная облачность
    ВремяПогодаТемператураВлажностьДавлениеВетер, м/сВероятность осадков
    00:00Ясно и безоблачно+17°C75 %754 мм2.6 м/с2 %
    03:00Ясно и безоблачно+14°C83 %754 мм2.0 м/с2 %
    06:00Ясно и безоблачно+15°C85 %754 мм1.0 м/с2 %
    09:00Ясно и безоблачно+21°C65 %754 мм0.6 м/с2 %
    12:00Ясно и безоблачно+25°C48 %754 мм1.8 м/с7 %
    15:00Пасмурно, сплошная облачность+26°C46 %753 мм1.8 м/с20 %
    18:00Небольшая облачность+24°C50 %752 мм1.4 м/с27 %
    21:00Практически безоблачно+21°C69 %752 мм1.8 м/с12 %
Мы используем cookies
Соглашаюсь